Vadito, NM

4:28 PM MDT on May 03, 2015 (GMT -0600)
Bell Mountain Ranch | | Change Station
CLOSE
Current Station
Personal Weather Station
Location: Vadito, NM
Elevation: 7660 ft
Nearby Weather Stations

Elev 7660 ft 36.19 °N, 105.66 °W | Updated 3 minutes ago

Overcast
Overcast
61.7 °F
Feels Like 61.7 °F
N
9.8
Wind Variable Wind from West
Gusts 9.8 mph

Today
High -- | Low -- °F
--% Chance of Precip.
Yesterday
High -- | Low -- °F
Precip. -- in
6:07 AM 7:51 PM
Full, 100% visible
Pressure 30.05 in
Visibility 10.0 miles
Clouds Few 8000 ft
Scattered Clouds 12000 ft
Dew Point 30 °F
Humidity 30%
Rainfall 0.00 in
Snow Depth Not available.
UV 5 out of 12
Pollen 7.30 out of 12
Air Quality Not available.
Flu Activity Local Activity
METAR KSKX 032215Z AUTO 26018G21KT 10SM VCTS FEW080 SCT120 19/M03 A3005 RMK AO1 LTG DSNT NE TSB09

More Conditions Fewer Conditions

Pressure 30.05 in
Visibility 10.0 miles
Clouds Few 8000 ft
Scattered Clouds 12000 ft
Dew Point 30 °F
Humidity 30%
Rainfall 0.00 in
Snow Depth Not available.
UV 5 out of 12
Pollen 7.30 out of 12
Air Quality Not available.
Flu Activity Local Activity
METAR KSKX 032215Z AUTO 26018G21KT 10SM VCTS FEW080 SCT120 19/M03 A3005 RMK AO1 LTG DSNT NE TSB09

More Conditions Fewer Conditions

Nepal has a long way to go to dig out and rebuild from a devastating earthquake. We have teamed up with several charities and organizations to make contributing to the relief effort as easy as possible.
How you can help: Portlight Strategies | Red Cross
Nowcast | as of 3:37 PM MDT on May 3, 2015

Through 530 PM MDT...scattered showers and isolated thunderstorms will continue to move northeast at 20 mph across much of central and western New Mexico. Rainfall will generally be light...with an occasional moderate downpour producing amounts ranging from a trace and two tenths of an inch. In addition...wind gusts to near 45 mph may accompany this activity with an occasional cloud to ground lightning strike. Look for this activity to diminish shortly after sunset.

×

10-Day Weather Forecast

Almanac

Astronomy

May. 03, 2015 Rise Set
Actual Time
Civil Twilight
Nautical Twilight
Astronomical Twilight
Moon
Length of Visible Light
Length of Day
Tomorrow will be .
, % of the Moon is Illuminated

Today's Extremes

State Highs State Lows

Community

WunderPhotos

Upload Photos

1,818,398 photos uploaded!

WunderBlogs® & News

Nearby

Air Quality

  Air Quality AQ Index Pollutant
Not available.

Snow Depth

Station Depth Elevation

Earthquake Activity

City Distance Mag. Time & Date
Minimum magnitude displayed is 2.5.

Coastal Water Temperatures

Place Temperature

Stations

Nearby Weather Stations

Station Location Temp. Windchill Dew Point Humidity Wind Precip. Elev Updated Type